Time;durP1;ratioP1;P1;durP2;ratioP2;P2;SDS_P1;SDS_P2;PMS_P1;PMS_P2;Temp;Humidity;BMP_temperature;BMP_pressure;BME280_temperature;BME280_humidity;BME280_pressure;Samples;Min_cycle;Max_cycle;Signal;HPM_P1;HPM_P2
2022/12/16 00:00:24;;;;;;;62.47;42.55;;;-0.70;99.90;;;;;;5062007;28;20045;-68
2022/12/16 00:02:51;;;;;;;63.13;40.10;;;-0.60;99.90;;;;;;5052143;28;20044;-68
2022/12/16 00:05:19;;;;;;;64.18;41.22;;;-0.70;99.90;;;;;;5050155;28;20049;-68
2022/12/16 00:07:46;;;;;;;68.60;42.25;;;-0.70;99.90;;;;;;5065611;28;20045;-68
2022/12/16 00:10:12;;;;;;;62.95;40.88;;;-0.70;99.90;;;;;;5065222;28;20072;-68
2022/12/16 00:12:38;;;;;;;61.65;40.28;;;-0.60;99.90;;;;;;5065585;28;20052;-68
2022/12/16 00:15:04;;;;;;;63.45;43.55;;;-0.60;99.90;;;;;;5083513;28;20100;-68
2022/12/16 00:17:29;;;;;;;65.78;40.78;;;-0.70;99.90;;;;;;5065487;28;20515;-68
2022/12/16 00:19:55;;;;;;;58.65;38.60;;;-0.60;99.90;;;;;;5065942;28;20060;-68
2022/12/16 00:22:22;;;;;;;61.22;40.60;;;-0.60;99.90;;;;;;5065340;28;20050;-68
2022/12/16 00:24:48;;;;;;;62.28;40.85;;;-0.50;99.90;;;;;;5065434;28;20106;-68
2022/12/16 00:27:14;;;;;;;61.28;40.08;;;-0.50;99.90;;;;;;5069222;28;20139;-68
2022/12/16 00:29:40;;;;;;;61.65;39.60;;;-0.40;99.90;;;;;;5071227;28;20037;-68
2022/12/16 00:32:06;;;;;;;55.35;39.80;;;-0.30;99.90;;;;;;5058814;28;20066;-68
2022/12/16 00:34:32;;;;;;;60.40;40.05;;;-0.40;99.90;;;;;;5068703;28;20044;-68
2022/12/16 00:36:58;;;;;;;53.80;38.20;;;-0.30;99.90;;;;;;5052615;28;20064;-68
2022/12/16 00:39:23;;;;;;;59.28;38.75;;;-0.30;99.90;;;;;;5069322;28;20059;-68
2022/12/16 00:41:50;;;;;;;61.30;39.65;;;-0.20;99.90;;;;;;5068465;28;20067;-68
2022/12/16 00:44:16;;;;;;;59.72;37.67;;;-0.20;99.90;;;;;;5068657;28;20057;-68
2022/12/16 00:46:42;;;;;;;59.85;38.00;;;-0.20;99.90;;;;;;5052716;28;20045;-68
2022/12/16 00:49:08;;;;;;;60.60;38.88;;;-0.20;99.90;;;;;;5087873;28;20051;-68
2022/12/16 00:51:33;;;;;;;57.08;37.50;;;-0.20;99.90;;;;;;5069089;28;20048;-68
2022/12/16 00:53:59;;;;;;;57.13;39.45;;;-0.20;99.90;;;;;;5068410;28;20076;-68
2022/12/16 00:56:25;;;;;;;54.45;36.00;;;-0.30;99.90;;;;;;5086513;28;20124;-68
2022/12/16 00:58:50;;;;;;;54.80;36.83;;;-0.30;99.90;;;;;;5086334;28;20063;-67
2022/12/16 01:01:16;;;;;;;59.75;38.30;;;-0.20;99.90;;;;;;5061072;28;20045;-67
2022/12/16 01:03:42;;;;;;;54.78;37.97;;;-0.30;99.90;;;;;;5062773;28;20082;-67
2022/12/16 01:06:16;;;;;;;54.88;38.03;;;-0.20;99.90;;;;;;5092203;28;20078;-67
2022/12/16 01:08:48;;;;;;;55.45;37.30;;;-0.20;99.90;;;;;;5055464;28;20055;-66
2022/12/16 01:11:16;;;;;;;56.60;36.75;;;-0.10;99.90;;;;;;5057398;28;20071;-67
2022/12/16 01:13:41;;;;;;;55.42;38.00;;;-0.20;99.90;;;;;;5071451;28;20101;-67
2022/12/16 01:16:07;;;;;;;57.08;38.25;;;-0.20;99.90;;;;;;5057581;28;20087;-67
2022/12/16 01:18:33;;;;;;;56.17;37.70;;;-0.10;99.90;;;;;;5086619;28;20505;-66
2022/12/16 01:21:07;;;;;;;55.55;38.53;;;-0.10;99.90;;;;;;5067805;28;20086;-66
2022/12/16 01:23:33;;;;;;;60.38;38.35;;;-0.10;99.90;;;;;;5068506;28;20469;-67
2022/12/16 01:26:00;;;;;;;57.50;39.05;;;-0.20;99.90;;;;;;5047752;28;20219;-67
2022/12/16 01:28:27;;;;;;;57.38;37.83;;;-0.20;99.90;;;;;;5079577;28;20048;-67
2022/12/16 01:31:00;;;;;;;63.65;38.60;;;-0.20;99.90;;;;;;5055867;28;20385;-67
2022/12/16 01:33:28;;;;;;;59.90;38.90;;;-0.20;99.90;;;;;;5085818;28;20048;-67
2022/12/16 01:36:01;;;;;;;58.97;38.17;;;-0.10;99.90;;;;;;5067403;28;20060;-67
2022/12/16 01:38:29;;;;;;;60.95;40.90;;;-0.20;99.90;;;;;;5084748;28;20051;-67
2022/12/16 01:40:54;;;;;;;65.43;40.53;;;-0.20;99.90;;;;;;5085469;28;20090;-68
2022/12/16 01:43:24;;;;;;;63.33;40.67;;;-0.20;99.90;;;;;;5085561;28;20044;-68
2022/12/16 01:45:52;;;;;;;61.78;39.58;;;-0.30;99.90;;;;;;5067231;28;20519;-68
2022/12/16 01:48:26;;;;;;;61.85;40.45;;;-0.30;99.90;;;;;;5068170;28;20045;-68
2022/12/16 01:50:58;;;;;;;60.80;40.13;;;-0.30;99.90;;;;;;5086388;28;20048;-68
2022/12/16 01:53:24;;;;;;;66.75;42.60;;;-0.20;99.90;;;;;;5067378;28;20100;-68
2022/12/16 01:55:51;;;;;;;62.50;42.15;;;-0.30;99.90;;;;;;5067198;28;20056;-68
2022/12/16 01:58:28;;;;;;;70.32;44.03;;;-0.30;99.90;;;;;;5067123;28;20032;-68
2022/12/16 02:00:54;;;;;;;66.28;42.33;;;-0.30;99.90;;;;;;5067043;28;20044;-68
2022/12/16 02:03:20;;;;;;;65.80;41.78;;;-0.20;99.90;;;;;;5066237;28;20052;-67
2022/12/16 02:05:46;;;;;;;63.90;40.60;;;-0.20;99.90;;;;;;5058947;28;20056;-68
2022/12/16 02:08:15;;;;;;;60.38;40.42;;;-0.30;99.90;;;;;;5066768;28;20121;-68
2022/12/16 02:10:43;;;;;;;59.10;41.17;;;-0.20;99.90;;;;;;5085741;28;20046;-68
2022/12/16 02:13:20;;;;;;;64.47;42.40;;;-0.10;99.90;;;;;;5086173;28;20040;-67
2022/12/16 02:15:58;;;;;;;64.85;42.53;;;-0.20;99.90;;;;;;5052955;28;20052;-67
2022/12/16 02:18:36;;;;;;;64.85;42.75;;;-0.30;99.90;;;;;;5065022;28;20508;-67
2022/12/16 02:21:05;;;;;;;66.05;43.28;;;-0.30;99.90;;;;;;5063728;28;20057;-68
2022/12/16 02:23:52;;;;;;;64.18;41.78;;;-0.30;99.90;;;;;;5067513;28;20087;-67
2022/12/16 02:26:57;;;;;;;65.80;42.83;;;-0.20;99.90;;;;;;5059933;28;20048;-67
2022/12/16 02:29:43;;;;;;;62.58;42.35;;;-0.30;99.90;;;;;;5053147;28;20052;-68
2022/12/16 02:32:31;;;;;;;63.47;40.38;;;-0.30;99.90;;;;;;5066745;28;20084;-67
2022/12/16 02:35:11;;;;;;;64.20;42.60;;;-0.20;99.90;;;;;;5066529;28;20040;-68
2022/12/16 02:37:56;;;;;;;64.53;41.78;;;-0.20;99.90;;;;;;5064931;28;20053;-68
2022/12/16 02:40:24;;;;;;;66.18;41.85;;;-0.20;99.90;;;;;;5084519;28;20072;-67
2022/12/16 02:42:57;;;;;;;63.88;44.00;;;-0.30;99.90;;;;;;5066372;28;20032;-67
2022/12/16 02:45:28;;;;;;;67.15;43.72;;;-0.20;99.90;;;;;;5065962;28;20119;-67
2022/12/16 02:47:53;;;;;;;62.95;42.65;;;-0.30;99.90;;;;;;5065671;28;20032;-67
2022/12/16 02:50:34;;;;;;;75.50;44.38;;;-0.20;99.90;;;;;;5050116;28;20082;-68
2022/12/16 02:53:01;;;;;;;64.15;42.42;;;-0.20;99.90;;;;;;5084891;28;20056;-67
2022/12/16 02:56:00;;;;;;;65.72;41.85;;;-0.20;99.90;;;;;;5084134;28;20088;-67
2022/12/16 02:58:42;;;;;;;67.80;44.38;;;-0.20;99.90;;;;;;5084457;28;20044;-67
2022/12/16 03:01:22;;;;;;;70.13;42.20;;;-0.20;99.90;;;;;;5067343;28;20155;-67
2022/12/16 03:03:59;;;;;;;68.65;45.67;;;-0.20;99.90;;;;;;5084450;28;20428;-68
2022/12/16 03:06:27;;;;;;;66.85;43.80;;;-0.20;99.90;;;;;;5063617;28;20056;-68
2022/12/16 03:08:56;;;;;;;70.13;44.55;;;-0.20;99.90;;;;;;5053497;28;20096;-68
2022/12/16 03:11:25;;;;;;;71.78;45.47;;;-0.10;99.90;;;;;;5084273;28;20040;-67
2022/12/16 03:13:54;;;;;;;74.60;45.25;;;-0.30;99.90;;;;;;5049258;28;20036;-67
2022/12/16 03:16:25;;;;;;;72.35;43.38;;;-0.20;99.90;;;;;;5065792;28;20080;-67
2022/12/16 03:18:55;;;;;;;72.50;44.75;;;-0.20;99.90;;;;;;5084241;28;20044;-68
2022/12/16 03:21:24;;;;;;;70.40;44.70;;;-0.20;99.90;;;;;;5084253;28;20459;-68
2022/12/16 03:23:56;;;;;;;67.78;43.72;;;-0.20;99.90;;;;;;5065702;28;20055;-68
2022/12/16 03:26:37;;;;;;;67.28;45.17;;;-0.20;99.90;;;;;;5084366;28;20045;-68
2022/12/16 03:29:46;;;;;;;71.20;46.13;;;-0.20;99.90;;;;;;5076779;28;20049;-68
2022/12/16 03:32:27;;;;;;;70.00;44.42;;;-0.10;99.90;;;;;;4989142;28;20058;-67
2022/12/16 03:35:12;;;;;;;75.40;47.33;;;-0.10;99.90;;;;;;5001984;28;20051;-66
2022/12/16 03:37:40;;;;;;;73.75;46.00;;;-0.20;99.90;;;;;;4986020;28;20092;-66
2022/12/16 03:40:08;;;;;;;79.50;47.92;;;-0.10;99.90;;;;;;5002643;28;20558;-66
2022/12/16 03:42:36;;;;;;;69.78;46.15;;;-0.10;99.90;;;;;;4985939;28;20070;-67
2022/12/16 03:45:04;;;;;;;75.10;47.30;;;-0.10;99.90;;;;;;5002118;28;20065;-67
2022/12/16 03:47:30;;;;;;;68.95;45.05;;;-0.10;99.90;;;;;;5001681;28;20109;-67
2022/12/16 03:49:56;;;;;;;78.22;45.95;;;-0.10;99.90;;;;;;4985680;28;20046;-68
2022/12/16 03:52:21;;;;;;;72.05;46.58;;;-0.10;99.90;;;;;;4986230;28;20098;-68
2022/12/16 03:54:47;;;;;;;72.90;45.20;;;0.10;99.90;;;;;;5002824;28;20050;-68
2022/12/16 03:57:13;;;;;;;69.88;45.30;;;0.00;99.90;;;;;;4985566;28;20062;-68
2022/12/16 03:59:38;;;;;;;79.50;44.78;;;-0.10;99.90;;;;;;5002663;28;20035;-67
2022/12/16 04:02:04;;;;;;;66.72;43.75;;;0.00;99.90;;;;;;5015351;28;20054;-68
2022/12/16 04:04:30;;;;;;;68.00;44.33;;;0.00;99.90;;;;;;4989210;28;20134;-68
2022/12/16 04:09:40;;;;;;;68.25;44.53;;;0.00;99.90;;;;;;5086814;28;20050;-67
2022/12/16 04:25:56;;;;;;;70.78;44.08;;;0.00;99.90;;;;;;5086972;28;20082;-68
2022/12/16 04:28:22;;;;;;;72.30;43.72;;;0.00;99.90;;;;;;5058537;28;20041;-68
2022/12/16 04:30:47;;;;;;;73.10;44.72;;;0.10;99.90;;;;;;5066991;28;20073;-68
